メインページ
METAR-TAF:

METAR-TAF

空港 :

イスタンブル-アタテュルク, トルコ

アタテュルク国際空港

緯度: 40-58N, 経度: 028-49E, 海抜: 48m

現時点の気象観測

当レポートは44分前の00:50(UTC)に作成
南/南西の風 17kt
気温 13°C
湿度 77%
気圧 991 hPa
視程10km以上
高度3000ftの雲は散在している
高度8000ftの千切れ雲あり

METAR: LTBA 180050Z 20017KT 9999 SCT030 BKN080 13/09 Q0991 RESHRA NOSIG RMK RWY17L 21014KT RWY05 19016KT RWY23 22016KT

時間: 04:34 (01:34 UTC)

予報

当レポートは2時間54分前の22:40(UTC)に作成
予報は18日の 00時(UTC)から 19日の 06時(UTC)まで有効
南西の風 17kt
視程10km以上
高度3500ftの雲は散在している
高度8000ftの千切れ雲あり
18日の 00時(UTC)から 18日の 04時(UTC)まで一時的に
南西の風 20kt、最大30ktの突風を伴う
高度2000ftの雲は散在している, 積乱雲.
高度8000ftの千切れ雲あり
弱いにわか雨
18日の 03時(UTC)から 18日の 06時(UTC)まで徐々に
の風 15kt
18日の 12時(UTC)から 18日の 15時(UTC)まで徐々に
視程10km以上
1,500メートル以下は雲なし、積乱雲なし

TAF: LTBA 172240Z 1800/1906 22017KT 9999 SCT035 BKN080 TEMPO 1800/1804 23020G30KT -SHRA SCT020CB BKN080 BECMG 1803/1806 36015KT BECMG 1812/1815 CAVOK

4,000以上の空港の気象観測と天気予報(METAR報とTAF報)

利用可能な観測所は地図上に黄色い丸と赤い丸で示す。

丸の上にカーソルを重ねると観測所名を参照できる。

次にクリックすると気象観測と天気予報を参照できる。

マップの切り替え:黒色「×」印の緑ボタンをクリックして拡大、「-」印の緑ボタンをクリックして縮小、緑色の三角印をクリックして隣りの地図に切り替え


METAR-TAF: